sensor_id;sensor_type;location;lat;lon;timestamp;temperature;humidity
2407;DHT22;37709;53.480;9.688;2023-08-06T12:18:36;18.20;99.60
2407;DHT22;37709;53.480;9.688;2023-08-06T12:21:07;37.00;78.50
2407;DHT22;37709;53.480;9.688;2023-08-06T12:23:35;36.60;79.30
2407;DHT22;37709;53.480;9.688;2023-08-06T12:26:03;36.90;77.10
2407;DHT22;37709;53.480;9.688;2023-08-06T12:28:31;36.90;75.50
2407;DHT22;37709;53.480;9.688;2023-08-06T15:53:25;21.50;99.90
2407;DHT22;37709;53.480;9.688;2023-08-06T15:55:52;21.20;99.90
2407;DHT22;37709;53.480;9.688;2023-08-06T15:58:23;21.10;99.90
2407;DHT22;37709;53.480;9.688;2023-08-06T16:00:50;21.00;99.90
2407;DHT22;37709;53.480;9.688;2023-08-06T16:03:17;21.00;99.90
2407;DHT22;37709;53.480;9.688;2023-08-06T16:05:45;20.80;99.90
2407;DHT22;37709;53.480;9.688;2023-08-06T16:08:14;20.70;99.90
2407;DHT22;37709;53.480;9.688;2023-08-06T16:10:41;20.50;99.90
2407;DHT22;37709;53.480;9.688;2023-08-06T16:13:12;20.40;99.90
2407;DHT22;37709;53.480;9.688;2023-08-06T16:15:39;20.30;99.90
2407;DHT22;37709;53.480;9.688;2023-08-06T16:18:06;20.20;99.90
2407;DHT22;37709;53.480;9.688;2023-08-06T16:20:34;19.90;99.90
2407;DHT22;37709;53.480;9.688;2023-08-06T16:23:01;19.80;99.90
2407;DHT22;37709;53.480;9.688;2023-08-06T16:25:30;19.70;99.90
2407;DHT22;37709;53.480;9.688;2023-08-06T16:27:57;19.60;99.90
2407;DHT22;37709;53.480;9.688;2023-08-06T16:30:24;19.50;99.90
2407;DHT22;37709;53.480;9.688;2023-08-06T16:32:52;19.40;99.90
2407;DHT22;37709;53.480;9.688;2023-08-06T16:35:20;19.30;99.90
2407;DHT22;37709;53.480;9.688;2023-08-06T16:37:50;19.30;99.90
2407;DHT22;37709;53.480;9.688;2023-08-06T16:40:18;19.20;99.90
2407;DHT22;37709;53.480;9.688;2023-08-06T16:42:45;19.10;99.90
2407;DHT22;37709;53.480;9.688;2023-08-06T16:45:13;19.10;99.90
2407;DHT22;37709;53.480;9.688;2023-08-06T16:47:41;19.10;99.90
2407;DHT22;37709;53.480;9.688;2023-08-06T16:50:09;19.00;99.90
2407;DHT22;37709;53.480;9.688;2023-08-06T16:52:39;19.00;99.90
2407;DHT22;37709;53.480;9.688;2023-08-06T16:55:07;18.90;99.90
2407;DHT22;37709;53.480;9.688;2023-08-06T16:57:34;18.90;99.90
2407;DHT22;37709;53.480;9.688;2023-08-06T17:00:02;19.00;99.90
2407;DHT22;37709;53.480;9.688;2023-08-06T17:02:30;18.90;99.90
2407;DHT22;37709;53.480;9.688;2023-08-06T17:04:58;19.00;99.90
2407;DHT22;37709;53.480;9.688;2023-08-06T17:07:25;18.90;99.90
2407;DHT22;37709;53.480;9.688;2023-08-06T17:09:52;18.80;99.90
2407;DHT22;37709;53.480;9.688;2023-08-06T17:12:19;18.80;99.90
2407;DHT22;37709;53.480;9.688;2023-08-06T17:14:48;18.80;99.90
2407;DHT22;37709;53.480;9.688;2023-08-06T17:17:15;18.70;99.90
2407;DHT22;37709;53.480;9.688;2023-08-06T17:19:43;18.70;99.90
2407;DHT22;37709;53.480;9.688;2023-08-06T17:22:12;18.70;99.90
2407;DHT22;37709;53.480;9.688;2023-08-06T17:24:40;18.60;99.90
2407;DHT22;37709;53.480;9.688;2023-08-06T17:27:08;18.60;99.90
2407;DHT22;37709;53.480;9.688;2023-08-06T17:29:35;18.60;99.90
2407;DHT22;37709;53.480;9.688;2023-08-06T17:32:05;18.50;99.90
2407;DHT22;37709;53.480;9.688;2023-08-06T17:34:32;18.50;99.90
2407;DHT22;37709;53.480;9.688;2023-08-06T17:37:00;18.50;99.90
2407;DHT22;37709;53.480;9.688;2023-08-06T17:39:32;18.50;99.90
2407;DHT22;37709;53.480;9.688;2023-08-06T17:42:00;18.50;99.90
2407;DHT22;37709;53.480;9.688;2023-08-06T17:44:30;18.40;99.90
2407;DHT22;37709;53.480;9.688;2023-08-06T17:46:58;18.40;99.90
2407;DHT22;37709;53.480;9.688;2023-08-06T17:49:26;18.30;99.90
2407;DHT22;37709;53.480;9.688;2023-08-06T17:51:54;18.30;99.90
2407;DHT22;37709;53.480;9.688;2023-08-06T17:54:21;18.30;99.90
2407;DHT22;37709;53.480;9.688;2023-08-06T17:56:48;18.30;99.90
2407;DHT22;37709;53.480;9.688;2023-08-06T17:59:17;18.30;99.90
2407;DHT22;37709;53.480;9.688;2023-08-06T18:01:45;18.40;99.90
2407;DHT22;37709;53.480;9.688;2023-08-06T18:04:12;18.40;99.90
2407;DHT22;37709;53.480;9.688;2023-08-06T18:06:39;18.40;99.90
2407;DHT22;37709;53.480;9.688;2023-08-06T18:09:07;18.40;99.90
2407;DHT22;37709;53.480;9.688;2023-08-06T18:11:34;18.30;99.90
2407;DHT22;37709;53.480;9.688;2023-08-06T18:14:02;18.30;99.90
2407;DHT22;37709;53.480;9.688;2023-08-06T18:16:30;18.20;99.90
2407;DHT22;37709;53.480;9.688;2023-08-06T18:18:57;18.20;99.90
2407;DHT22;37709;53.480;9.688;2023-08-06T18:21:25;18.10;99.90
2407;DHT22;37709;53.480;9.688;2023-08-06T18:28:48;18.00;99.90
2407;DHT22;37709;53.480;9.688;2023-08-06T18:31:15;17.50;99.90
2407;DHT22;37709;53.480;9.688;2023-08-06T18:33:45;17.40;99.90
2407;DHT22;37709;53.480;9.688;2023-08-06T18:36:12;17.30;99.90
2407;DHT22;37709;53.480;9.688;2023-08-06T18:38:40;17.10;99.90
2407;DHT22;37709;53.480;9.688;2023-08-06T18:41:09;17.00;99.90
2407;DHT22;37709;53.480;9.688;2023-08-06T18:43:36;17.00;99.90
2407;DHT22;37709;53.480;9.688;2023-08-06T18:46:04;16.90;99.90
2407;DHT22;37709;53.480;9.688;2023-08-06T18:48:32;16.80;99.90
2407;DHT22;37709;53.480;9.688;2023-08-06T18:50:59;16.80;99.90
2407;DHT22;37709;53.480;9.688;2023-08-06T18:53:26;16.70;99.90
2407;DHT22;37709;53.480;9.688;2023-08-06T18:55:53;16.60;99.90
2407;DHT22;37709;53.480;9.688;2023-08-06T18:58:21;16.50;99.90
2407;DHT22;37709;53.480;9.688;2023-08-06T19:00:48;16.40;99.90
